Saturday, October 20, 2018, 6:39 AM EDT
Back to Local

KWST, Westerly State Airport

Location: Westerly, RI, United States Lat: 41.35
Local Time: 6:39 AM EDT (10:39 GMT) Lon: -71.8
Time Zone: US/Eastern Elev: 82 ft

Show me the last for .
Show Decoded

2018-10-20 05:53 METAR KWST 200953Z AUTO 22010G24KT 10SM OVC080 15/11 A2976 RMK AO2 RAE18 SLP077
                 P0001 T01500111 $ =
2018-10-20 04:53 METAR KWST 200853Z AUTO 23015G21KT 10SM -RA BKN075 OVC095 16/11 A2978 RMK AO2 PK
                 WND 24027/0818 RAB20 SLP085 P0000 60000 T01560106 56028 $ =
2018-10-20 03:53 METAR KWST 200753Z AUTO 23012G21KT 10SM OVC095 17/10 A2980 RMK AO2 RAB12E26
                 SLP091 P0000 T01670100 $ =
2018-10-20 02:53 METAR KWST 200653Z AUTO 23011G21KT 10SM BKN110 16/09 A2983 RMK AO2 SLP101
                 T01610094 $ =
2018-10-20 01:53 METAR KWST 200553Z AUTO 23010G20KT 10SM CLR 16/10 A2987 RMK AO2 SLP113 T01610100
                 10167 20144 56033 $ =
2018-10-20 01:18 METAR KWST 200518Z AUTO 24013G20KT 10SM FEW026 SCT030 SCT035 16/11 A2988 RMK AO2
                 T01610111 $ =
2018-10-20 00:53 METAR KWST 200453Z AUTO 22014G24KT 10SM BKN027 BKN035 OVC050 17/12 A2990 RMK AO2
                 PK WND 20027/0416 SLP124 T01670122 401670006 $ =
2018-10-19 23:53 METAR KWST 200353Z AUTO 21018G23KT 10SM CLR 16/11 A2991 RMK AO2 SLP127 T01610111
                 $ =
2018-10-19 22:53 METAR KWST 200253Z AUTO 22009G17KT 10SM CLR 15/10 A2997 RMK AO2 SLP146 T01500100
                 58020 $ =
2018-10-19 21:53 METAR KWST 200153Z AUTO 23011G17KT 10SM CLR 14/09 A2999 RMK AO2 SLP153 T01440089
                 $ =
2018-10-19 20:53 METAR KWST 200053Z AUTO 23015G22KT 10SM CLR 14/08 A3001 RMK AO2 SLP161 T01440078
                 $ =
2018-10-19 19:53 METAR KWST 192353Z AUTO 23009KT 10SM CLR 14/07 A3002 RMK AO2 SLP167 T01440067
                 10156 20139 58012 $ =
2018-10-19 18:53 METAR KWST 192253Z AUTO 23008G16KT 10SM CLR 14/07 A3004 RMK AO2 SLP174 T01440067
                 $ =
2018-10-19 17:53 METAR KWST 192153Z AUTO 23012G20KT 10SM CLR 14/06 A3004 RMK AO2 SLP174 T01390061
                 $ =
2018-10-19 16:53 METAR KWST 192053Z AUTO 22008G16KT 10SM CLR 14/04 A3006 RMK AO2 SLP179 T01440044
                 56027 $ =
2018-10-19 15:53 METAR KWST 191953Z AUTO 23006KT 10SM CLR 16/05 A3008 RMK AO2 SLP186 T01560050 $
                 =
2018-10-19 14:53 METAR KWST 191853Z AUTO 24009KT 10SM CLR 15/05 A3010 RMK AO2 SLP194 T01500050 $
                 =
2018-10-19 13:53 METAR KWST 191753Z AUTO 23011G17KT 10SM CLR 14/06 A3014 RMK AO2 SLP206 T01440061
                 10144 20039 58034 $ =
2018-10-19 12:53 METAR KWST 191653Z AUTO 24013G20KT 10SM CLR 13/07 A3017 RMK AO2 SLP217 T01330067
                 $ =
2018-10-19 11:53 METAR KWST 191553Z AUTO 24011G21KT 10SM CLR 13/05 A3021 RMK AO2 SLP232 T01330050
                 $ =
2018-10-19 10:53 METAR KWST 191453Z AUTO 23010G16KT 10SM CLR 12/06 A3024 RMK AO2 SLP240 T01220056
                 58017 $ =
2018-10-19 09:53 METAR KWST 191353Z AUTO 24006KT 10SM CLR 11/02 A3026 RMK AO2 SLP246 T01060017 $
                 =
2018-10-19 08:53 METAR KWST 191253Z AUTO 25007KT 10SM CLR 08/M01 A3028 RMK AO2 SLP253 T00831006 $
                 =
2018-10-19 07:53 METAR KWST 191153Z AUTO 24004KT 10SM CLR 04/M01 A3029 RMK AO2 SLP256 T00391011
                 10039 20006 58004 $ =
2018-10-19 06:53 METAR KWST 191053Z AUTO 00000KT 10SM CLR 02/M02 A3029 RMK AO2 SLP259 T00171022 $
                 =

Support USWX by starting your Amazon purchase here.